D/T METAR WX W/DIR W/SPE G/SPE TEMP DEWP
15/01/19 15:50 EGWC 151550Z 18003KT 9999 BKN023 09/06 Q1015 WHT S (180°) 3.5mph 9°C 6°C
15/01/19 14:50 EGWC 151450Z 23009KT 9999 VCSH FEW015 BKN028 09/06 Q1015 BLU VCSH SW (230°) 10.4mph 9°C 6°C
15/01/19 13:50 EGWC 151350Z 22009KT 9999 BKN033 10/03 Q1016 BLU SW (220°) 10.4mph 10°C 3°C
15/01/19 12:50 EGWC 151250Z 23005KT 9999 FEW015 BKN033 09/05 Q1017 BLU SW (230°) 5.8mph 9°C 5°C
15/01/19 11:50 EGWC 151150Z 22007KT 9999 BKN034 08/06 Q1018 BLU SW (220°) 8.1mph 8°C 6°C
15/01/19 10:50 EGWC 151050Z 21006KT 9999 SCT038 08/06 Q1018 BLU SSW (210°) 6.9mph 8°C 6°C
15/01/19 09:50 EGWC 150950Z 20009KT 9999 FEW030 BKN038 07/05 Q1018 BLU SSW (200°) 10.4mph 7°C 5°C
15/01/19 08:50 EGWC 150850Z 21007KT 9999 BKN035 07/05 Q1019 BLU SSW (210°) 8.1mph 7°C 5°C
15/01/19 07:50 EGWC 150750Z 20007KT 9999 BKN035 07/05 Q1018 BLU SSW (200°) 8.1mph 7°C 5°C
14/01/19 15:50 EGWC 141550Z 30007KT 9999 -SHRA BKN040 09/03 Q1022 BLU -SHRA WNW (300°) 8.1mph 9°C 3°C
14/01/19 14:50 EGWC 141450Z 31008KT 9999 FEW022 BKN034 09/03 Q1022 NW (310°) 9.2mph 9°C 3°C
14/01/19 13:50 EGWC 141350Z 30007KT 9999 SCT025 BKN045 09/04 Q1022 BLU WNW (300°) 8.1mph 9°C 4°C
14/01/19 12:50 EGWC 141250Z 31006KT 9999 BKN025 BKN045 09/04 Q1022 BLU NW (310°) 6.9mph 9°C 4°C
14/01/19 11:50 EGWC 141150Z 31011KT 9999 SCT022 BKN045 09/04 Q1022 WHT NW (310°) 12.7mph 9°C 4°C
14/01/19 09:50 EGWC 140950Z 30005KT 9999 BKN025 08/03 Q1021 BLU WNW (300°) 5.8mph 8°C 3°C
14/01/19 08:50 EGWC 140850Z 29006KT 9999 FEW015 BKN030 07/03 Q1021 BLU WNW (290°) 6.9mph 7°C 3°C
14/01/19 07:50 EGWC 140750Z 28004KT 9999 FEW015 BKN024 07/03 Q1020 WHT W (280°) 4.6mph 7°C 3°C
13/01/19 11:50 EGWC 131150Z 27013G23KT 9999 FEW012 B018 11/07 Q1012 WHT W (270°) 15.0mph 26.5mph 11°C 7°C
13/01/19 10:50 EGWC 131050Z 27013G23KT 9999 FEW012 BKN018 10/08 Q1013 WHT W (270°) 15.0mph 26.5mph 10°C 8°C
13/01/19 09:50 EGWC 130950Z 25011KT 9999 FEW018 BKN020 10/07 Q1013 WSW (250°) 12.7mph 10°C 7°C
13/01/19 08:50 EGWC 130850Z 24008KT 9999 BKN030 10/06 Q1014 BLU WSW (240°) 9.2mph 10°C 6°C
13/01/19 07:50 EGWC 130750Z 25007KT 9999 FEW017 SCT030 09/06 Q1015 BLU WSW (250°) 8.1mph 9°C 6°C
12/01/19 15:50 EGWC 121550Z 28009KT 9999 BKN028 10/06 Q1021 BLU W (280°) 10.4mph 10°C 6°C
12/01/19 14:50 EGWC 121450Z 28012KT 9999 BKN028 10/04 Q1021 BLU W (280°) 13.8mph 10°C 4°C
12/01/19 11:50 EGWC 121150Z 28008KT 9999 FEW013 SCT070 BKN150 10/05 Q1022 BLU W (280°) 9.2mph 10°C 5°C
12/01/19 09:50 EGWC 120950Z 29007KT 9999 FEW010 SCT015 OVC070 09/07 Q1023 WHT WNW (290°) 8.1mph 9°C 7°C
12/01/19 08:50 EGWC 120850Z 30006KT 9999 FEW010 BKN015 09/07 Q1023 RERA WHT WNW (300°) 6.9mph 9°C 7°C
12/01/19 07:50 EGWC 120750Z 26009KT 9999 FEW010 BKN015 09/07 Q1022 WHT W (260°) 10.4mph 9°C 7°C
9/01/19 14:50 EGWC 091450Z 35008KT 9999 FEW040 BKN250 04/M01 Q1032 BLU N (350°) 9.2mph 4°C -1°C
9/01/19 13:50 EGWC 091350Z 34007KT CAVOK 04/M01 Q1032 BLU NNW (340°) 8.1mph 4°C -1°C
9/01/19 12:50 EGWC 091250Z 34007KT 9999 FEW040 BKN250 04/M01 Q1032 BLU NNW (340°) 8.1mph 4°C -1°C
9/01/19 11:50 EGWC 091150Z 33007KT 9999 SCT040 04/M01 Q1032 BLU NNW (330°) 8.1mph 4°C -1°C
9/01/19 10:50 EGWC 091050Z 35007KT 9999 SCT040 03/M00 Q1033 BLU N (350°) 8.1mph 3°C 0°C
9/01/19 09:50 EGWC 090950Z 35006KT 9999 FEW028 SCT040 02/M01 Q1033 BLU N (350°) 6.9mph 2°C -1°C
9/01/19 08:50 EGWC 090850Z 01004KT 9999 FEW040 02/M01 Q1032 BLU N (10°) 4.6mph 2°C -1°C
9/01/19 07:50 EGWC 090750Z 34006KT CAVOK 01/00 Q1032 BLU NNW (340°) 6.9mph 1°C 0°C
8/01/19 15:50 EGWC 081550Z 32009KT 9999 FEW030 07/02 Q1030 BLU NW (320°) 10.4mph 7°C 2°C
8/01/19 14:50 EGWC 081450Z 33010KT 9999 FEW025 SCT030 08/02 Q1030 BLU NNW (330°) 11.5mph 8°C 2°C
8/01/19 13:50 EGWC 081350Z 32011G25KT 9999 SCT025 08/01 Q1030 BLU NW (320°) 12.7mph 28.8mph 8°C 1°C
8/01/19 12:50 EGWC 081250Z 33014KT 9999 SCT025 08/03 Q1030 BLU NNW (330°) 16.1mph 8°C 3°C
8/01/19 11:50 EGWC 081150Z 33009KT 9999 FEW020 08/03 Q1030 BLU NNW (330°) 10.4mph 8°C 3°C
8/01/19 10:50 EGWC 081050Z 31010KT 9999 FEW020 08/03 Q1030 BLU NW (310°) 11.5mph 8°C 3°C
8/01/19 09:50 EGWC 080950Z 31008KT 9999 FEW038 07/02 Q1030 BLU NW (310°) 9.2mph 7°C 2°C
8/01/19 07:50 EGWC 080750Z 32008KT 9999 FEW018 SCT028 07/02 Q1029 BLU NW (320°) 9.2mph 7°C 2°C
7/01/19 15:50 EGWC 071550Z 26013KT 9999 SCT016 BKN070 11/07 Q1027 WHT W (260°) 15.0mph 11°C 7°C
7/01/19 14:50 EGWC 071450Z 26012KT 9999 BKN016 12/08 Q1028 WHT W (260°) 13.8mph 12°C 8°C
7/01/19 12:50 EGWC 071250Z 26012KT 9999 BKN015 12/08 Q1029 WHT W (260°) 13.8mph 12°C 8°C
7/01/19 11:50 EGWC 071150Z 23006KT 9999 BKN016 11/08 Q1030 WHT SW (230°) 6.9mph 11°C 8°C
7/01/19 09:50 EGWC 070950Z 21007KT 9999 BKN015 09/07 Q1032 WHT SSW (210°) 8.1mph 9°C 7°C
7/01/19 08:50 EGWC 070850Z 24007KT 9999 BKN022 09/06 Q1032 WHT WSW (240°) 8.1mph 9°C 6°C
6/01/19 15:50 EGWC 061550Z 28003KT 9999 BKN022 09/07 Q1037 WHT W (280°) 3.5mph 9°C 7°C
6/01/19 14:50 EGWC 061450Z 28003KT 9999 FEW015 BKN022 09/06 Q1037 WHT W (280°) 3.5mph 9°C 6°C
6/01/19 13:50 EGWC 061350Z 20002KT 9999 OVC020 09/06 Q1037 WHT SSW (200°) 2.3mph 9°C 6°C
6/01/19 11:50 EGWC 061150Z 28002KT 9999 SCT020 BKN030 08/05 Q1037 WHT W (280°) 2.3mph 8°C 5°C
6/01/19 10:50 EGWC 061050Z 16002KT 9999 FEW020 OVC035 07/05 Q1037 BLU SSE (160°) 2.3mph 7°C 5°C
6/01/19 09:50 EGWC 060950Z 00000KT 9999 FEW024 BKN030 06/05 Q1037 BLU N (0°) 6°C 5°C
6/01/19 08:50 EGWC 060850Z 00000KT 9999 FEW024 OVC030 05/04 Q1037 BLU N (0°) 5°C 4°C
6/01/19 07:50 EGWC 060750Z 16001KT 9999 BKN022 07/04 Q1036 WHT SSE (160°) 1.2mph 7°C 4°C
5/01/19 15:50 EGWC 051550Z 21004KT 9999 BKN025 05/03 Q1038 BLU SSW (210°) 4.6mph 5°C 3°C
5/01/19 14:50 EGWC 051450Z 20003KT 9999 BKN025 05/02 Q1038 BLU SSW (200°) 3.5mph 5°C 2°C
5/01/19 13:50 EGWC 051350Z 21004KT 9999 BKN025 05/02 Q1038 BLU SSW (210°) 4.6mph 5°C 2°C
5/01/19 12:50 EGWC 051250Z 20005KT 9999 BKN026 05/03 Q1038 BLU SSW (200°) 5.8mph 5°C 3°C
5/01/19 11:50 EGWC 051150Z 19003KT 9999 BKN026 04/02 Q1038 BLU S (190°) 3.5mph 4°C 2°C
5/01/19 10:50 EGWC 051050Z 21003KT 9999 BKN026 03/01 Q1039 BLU SSW (210°) 3.5mph 3°C 1°C
5/01/19 09:50 EGWC 050950Z 21002KT 9999 BKN022 03/01 Q1039 WHT SSW (210°) 2.3mph 3°C 1°C
5/01/19 08:50 EGWC 050850Z 19003KT 9999 BKN022 02/01 Q1039 WHT S (190°) 3.5mph 2°C 1°C
5/01/19 07:50 EGWC 050750Z 22001KT 9999 BKN020 02/01 Q1039 WHT SW (220°) 1.2mph 2°C 1°C
19/12/18 13:50 EGWC 191350Z 18008KT 9999 FEW040 09/05 Q1001 BLU S (180°) 9.2mph 9°C 5°C
19/12/18 12:50 EGWC 191250Z 19007KT 9999 FEW015CB SCT040 BKN250 09/05 Q1022 BLU S (190°) 8.1mph 9°C 5°C
19/12/18 11:50 EGWC 191150Z 19012KT 9999 FEW015 SCT040 07/06 Q1003 BLU S (190°) 13.8mph 7°C 6°C
19/12/18 10:50 EGWC 191050Z 19010KT 9999 SCT032 BKN250 07/05 Q1003 BLU S (190°) 11.5mph 7°C 5°C
19/12/18 09:50 EGWC 190950Z 19007KT 9999 FEW032 SCT045 BKN250 06/05 Q1003 BLU S (190°) 8.1mph 6°C 5°C
19/12/18 08:50 EGWC 190850Z 20005KT 9999 FEW032 BKN045 05/04 Q1002 BLU SSW (200°) 5.8mph 5°C 4°C
19/12/18 07:50 EGWC 190750Z 18004KT 9999 BKN045 06/04 Q1001 BLU S (180°) 4.6mph 6°C 4°C
18/12/18 08:50 EGWC 180850Z 17019G30KT 9999 -RA BKN015 10/07 Q1005 WHT -RA S (170°) 21.9mph 34.5mph 10°C 7°C
18/12/18 07:50 EGWC 180750Z 16021G37KT 8000 RA BKN020 11/07 Q1005 WHT RA SSE (160°) 24.2mph 42.6mph 11°C 7°C
17/12/18 15:50 EGWC 171550Z 15006KT 9999 FEW015 06/05 Q1015 BLU SSE (150°) 6.9mph 6°C 5°C
17/12/18 14:50 EGWC 171450Z 15009KT 9999 FEW015 07/05 Q1015 BLU SSE (150°) 10.4mph 7°C 5°C
17/12/18 13:50 EGWC 171350Z 17008KT 9999 FEW010 BKN250 07/05 Q1015 BLU S (170°) 9.2mph 7°C 5°C
17/12/18 12:50 EGWC 171250Z 16007KT CAVOK 07/06 Q1015 BLU SSE (160°) 8.1mph 7°C 6°C
17/12/18 11:50 EGWC 171150Z 17003KT CAVOK 07/04 Q1016 BLU S (170°) 3.5mph 7°C 4°C
17/12/18 10:50 EGWC 171050Z 21003KT CAVOK 05/03 Q1015 BLU SSW (210°) 3.5mph 5°C 3°C
17/12/18 09:50 EGWC 170950Z 21002KT CAVOK 03/02 Q1015 BLU SSW (210°) 2.3mph 3°C 2°C
17/12/18 08:50 EGWC 170850Z 18001KT 9999 FEW015 SCT250 02/01 Q1015 BLACKBLU S (180°) 1.2mph 2°C 1°C
17/12/18 07:50 EGWC 170750Z 19004KT 9999 FEW015 SCT250 02/01 Q1014 BLU S (190°) 4.6mph 2°C 1°C
16/12/18 15:50 EGWC 161550Z 13006KT 9999 -SHRA SCT023 OVC100 06/05 Q1003 WHT -SHRA SE (130°) 6.9mph 6°C 5°C
16/12/18 14:50 EGWC 161450Z 16005KT 9999 FEW009 SCT028 BKN080 06/04 Q1003 BLU SSE (160°) 5.8mph 6°C 4°C
16/12/18 13:50 EGWC 161350Z 17005KT 9999 FEW025 SCT060 BKN100 06/04 Q1003 BLU S (170°) 5.8mph 6°C 4°C
16/12/18 12:50 EGWC 161250Z 18005KT 9999 FEW009 SCT060 BKN250 05/04 Q1004 BLU S (180°) 5.8mph 5°C 4°C
16/12/18 11:50 EGWC 161150Z 16004KT 9999 FEW005 SCT060 BKN250 05/04 Q1004 BLU SSE (160°) 4.6mph 5°C 4°C
16/12/18 11:17 EGWC 161117Z 18005KT 9999 5000W BR FEW003 SCT100 BKN250 04/03 Q1005 WHT BR S (180°) 5.8mph 4°C 3°C
16/12/18 10:41 EGWC 161041Z 18006KT 9999 3000S FEW002 SCT100 BKN250 04/03 Q1004 YLO1 S (180°) 6.9mph 4°C 3°C
16/12/18 09:50 EGWC 160950Z 19006KT 9999 FEW020 04/03 Q1004 BLU S (190°) 6.9mph 4°C 3°C
16/12/18 08:50 EGWC 160850Z 19005KT 9999 FEW018 03/02 Q1004 BLU S (190°) 5.8mph 3°C 2°C
16/12/18 07:50 EGWC 160750Z 17004KT 9999 FEW018 03/// Q1006 BLU S (170°) 4.6mph 0°C 0°C
15/12/18 07:50 EGWC 150750Z 14016G27KT 9999 SCT025 02/M02 Q1013 BLU SE (140°) 18.4mph 31.1mph 2°C -2°C
12/12/18 12:50 EGWC 121250Z 14014KT 9999 SCT018 07/06 Q1020 WHT SE (140°) 16.1mph 7°C 6°C
12/12/18 11:50 EGWC 121150Z 14014KT 9999 SCT015 07/05 Q1021 WHT SE (140°) 16.1mph 7°C 5°C
12/12/18 10:50 EGWC 121050Z 13013KT 9999 FEW040 07/05 Q1021 BLU SE (130°) 15.0mph 7°C 5°C
12/12/18 09:50 EGWC 120950Z 13009KT 9999 FEW040 06/05 Q1021 BLU SE (130°) 10.4mph 6°C 5°C
12/12/18 08:50 EGWC 120850Z 13012KT 9999 FEW040 06/04 Q1021 BLU SE (130°) 13.8mph 6°C 4°C
12/12/18 07:50 EGWC 120750Z 13010KT 9999 FEW009 SCT020 06/04 Q1020 WHT SE (130°) 11.5mph 6°C 4°C
11/12/18 14:50 EGWC 111450Z 18003KT 9999 SCT028 08/06 Q1022 BLU S (180°) 3.5mph 8°C 6°C
11/12/18 13:50 EGWC 111350Z 15005KT 9999 FEW023 SCT030 BKN150 08/06 Q1022 BLU SSE (150°) 5.8mph 8°C 6°C
11/12/18 12:50 EGWC 111250Z 19006KT CAVOK 08/06 Q1023 BLU S (190°) 6.9mph 8°C 6°C
11/12/18 11:50 EGWC 111150Z 17003KT 9999 BKN035 08/06 Q1023 BLU S (170°) 3.5mph 8°C 6°C
11/12/18 10:50 EGWC 111050Z 17006KT 9999 BKN036 07/05 Q1024 BLU S (170°) 6.9mph 7°C 5°C
11/12/18 09:50 EGWC 110950Z 16002KT 6000 HZ BKN036 06/05 Q1024 WHT HZ SSE (160°) 2.3mph 6°C 5°C
11/12/18 08:50 EGWC 110850Z 15001KT 6000 HZ BKN030 06/05 Q1024 WHT HZ SSE (150°) 1.2mph 6°C 5°C
11/12/18 07:50 EGWC 110750Z 17004KT 6000 BR BKN030 06/04 Q1024 WHT BR S (170°) 4.6mph 6°C 4°C
10/12/18 15:50 EGWC 101550Z 24003KT 9999 FEW034 BKN100 07/05 Q1028 BLU WSW (240°) 3.5mph 7°C 5°C
10/12/18 14:50 EGWC 101450Z 27003KT 9999 FEW034 BKN100 09/04 Q1027 BLU W (270°) 3.5mph 9°C 4°C
10/12/18 13:50 EGWC 101350Z 16004KT 9999 FEW040 BKN100 09/04 Q1027 BLU SSE (160°) 4.6mph 9°C 4°C
10/12/18 11:50 EGWC 101150Z 28005KT 9999 FEW040 BKN070 08/04 Q1027 BLU W (280°) 5.8mph 8°C 4°C
10/12/18 10:50 EGWC 101050Z 27007KT 9999 SCT040 08/04 Q1027 BLU W (270°) 8.1mph 8°C 4°C
10/12/18 09:50 EGWC 100950Z 26006KT 9999 SCT035 07/04 Q1027 BLU W (260°) 6.9mph 7°C 4°C
10/12/18 08:50 EGWC 100850Z 25006KT 9999 SCT035 07/04 Q1027 BLU WSW (250°) 6.9mph 7°C 4°C
10/12/18 07:50 EGWC 100750Z 27002KT 9999 SCT035 05/03 Q1026 BLU W (270°) 2.3mph 5°C 3°C
9/12/18 14:50 EGWC 091450Z 30008KT 9999 FEW011 SCT028 09/05 Q1014 BLU WNW (300°) 9.2mph 9°C 5°C
9/12/18 13:50 EGWC 091350Z 30014KT 9999 VCSH FEW011 SCT022 09/05 Q1013 WHT VCSH WNW (300°) 16.1mph 9°C 5°C
9/12/18 09:50 EGWC 090950Z 28005KT 9999 FEW008 SCT017 08/05 Q1008 WHT W (280°) 5.8mph 8°C 5°C
9/12/18 08:50 EGWC 090850Z 31010KT 9999 FEW008 SCT017 08/06 Q1006 WHT NW (310°) 11.5mph 8°C 6°C
9/12/18 07:50 EGWC 090750Z 30014KT 6000 -RA SCT010 BKN017 08/06 Q1003 GRN -RA WNW (300°) 16.1mph 8°C 6°C
8/12/18 12:50 EGWC 081250Z 20011KT 9999 VCSH BKN022 10/06 Q0998 WHT VCSH SSW (200°) 12.7mph 10°C 6°C
8/12/18 11:50 EGWC 081150Z 19008KT 9999 BKN020 10/06 Q0999 WHT S (190°) 9.2mph 10°C 6°C
8/12/18 10:50 EGWC 081050Z 25009G19KT 9999 FEW017 10/// Q1002 BLU WSW (250°) 10.4mph 21.9mph 0°C 0°C
8/12/18 09:50 EGWC 080950Z 25009G19KT 9999 FEW020 09/// Q1003 BLU WSW (250°) 10.4mph 21.9mph 0°C 0°C
8/12/18 08:50 EGWC 080850Z 27014G25KT 9999 FEW018 09/03 Q1003 BLU W (270°) 16.1mph 28.8mph 9°C 3°C
8/12/18 07:50 EGWC 080750Z 26013G25KT 9999 FEW020 09/// Q1002 BLU W (260°) 15.0mph 28.8mph 0°C 0°C
5/12/18 13:50 EGWC 051350Z 17011KT 4500 RA BKN005 OVC010 11/10 Q1007 YLO1 RA S (170°) 12.7mph 11°C 10°C
5/12/18 11:50 EGWC 051150Z 16009KT 3000 RA OVC003 09/09 Q1009 YLO2 RA SSE (160°) 10.4mph 9°C 9°C
5/12/18 10:50 EGWC 051050Z 15006KT 2000 -RA OVC003 08/08 Q1011 YLO2 -RA SSE (150°) 6.9mph 8°C 8°C
5/12/18 09:50 EGWC 050950Z 16004KT 3000 BR OVC005 07/07 Q1012 YLO1 BR SSE (160°) 4.6mph 7°C 7°C
5/12/18 08:50 EGWC 050850Z 18003KT 5000 BR OVC005 07/06 Q1012 YLO1 BR S (180°) 3.5mph 7°C 6°C
5/12/18 07:50 EGWC 050750Z 12005KT 5000 BR BKN005 06/06 Q1013 YLO1 BR ESE (120°) 5.8mph 6°C 6°C
4/12/18 15:50 EGWC 041550Z 00000KT 9999 FEW030 BKN060 04/03 Q1022 BLU N (0°) 4°C 3°C
4/12/18 14:50 EGWC 041450Z 00000KT 9999 FEW030 BKN060 05/03 Q1022 BLU N (0°) 5°C 3°C
4/12/18 13:50 EGWC 041350Z 00000KT 9999 FEW028 05/03 Q1022 BLU N (0°) 5°C 3°C
4/12/18 12:50 EGWC 041250Z 00000KT 9999 FEW045 05/03 Q1022 BLU N (0°) 5°C 3°C
4/12/18 11:50 EGWC 041150Z 00000KT CAVOK 04/03 Q1022 BLU N (0°) 4°C 3°C
4/12/18 10:50 EGWC 041050Z 20003KT CAVOK 03/02 Q1022 BLU SSW (200°) 3.5mph 3°C 2°C
4/12/18 09:50 EGWC 040950Z 19003KT CAVOK 02/02 Q1021 BLU S (190°) 3.5mph 2°C 2°C
4/12/18 09:19 EGWC 040919Z 17002KT CAVOK M02/M02 Q1021 BLU S (170°) 2.3mph -2°C -2°C
4/12/18 08:19 EGWC 040819Z 20002KT 9999 MIFG FEW030 01/01 Q1020 BLACKBLU MIFG SSW (200°) 2.3mph 1°C 1°C